sensor_id;sensor_type;location;lat;lon;timestamp;temperature;humidity
17571;DHT22;8903;52.220;20.978;2023-05-20T00:01:41;14.10;99.90
17571;DHT22;8903;52.220;20.978;2023-05-20T00:04:08;14.00;99.90
17571;DHT22;8903;52.220;20.978;2023-05-20T00:06:36;14.00;99.90
17571;DHT22;8903;52.220;20.978;2023-05-20T00:09:03;14.00;99.90
17571;DHT22;8903;52.220;20.978;2023-05-20T00:11:30;13.90;99.90
17571;DHT22;8903;52.220;20.978;2023-05-20T00:13:57;13.90;99.90
17571;DHT22;8903;52.220;20.978;2023-05-20T00:16:24;13.90;99.90
17571;DHT22;8903;52.220;20.978;2023-05-20T00:18:51;13.90;99.90
17571;DHT22;8903;52.220;20.978;2023-05-20T00:21:18;13.90;99.90
17571;DHT22;8903;52.220;20.978;2023-05-20T00:23:47;13.90;99.90
17571;DHT22;8903;52.220;20.978;2023-05-20T00:26:13;13.80;99.90
17571;DHT22;8903;52.220;20.978;2023-05-20T00:28:41;13.80;99.90
17571;DHT22;8903;52.220;20.978;2023-05-20T00:31:08;13.80;99.90
17571;DHT22;8903;52.220;20.978;2023-05-20T00:33:35;13.70;99.90
17571;DHT22;8903;52.220;20.978;2023-05-20T00:36:02;13.70;99.90
17571;DHT22;8903;52.220;20.978;2023-05-20T00:38:29;13.70;99.90
17571;DHT22;8903;52.220;20.978;2023-05-20T00:40:58;13.60;99.90
17571;DHT22;8903;52.220;20.978;2023-05-20T00:43:25;13.60;99.90
17571;DHT22;8903;52.220;20.978;2023-05-20T00:45:53;13.60;99.90
17571;DHT22;8903;52.220;20.978;2023-05-20T00:48:20;13.60;99.90
17571;DHT22;8903;52.220;20.978;2023-05-20T00:50:48;13.60;99.90
17571;DHT22;8903;52.220;20.978;2023-05-20T00:53:16;13.60;99.90
17571;DHT22;8903;52.220;20.978;2023-05-20T00:55:43;13.60;99.90
17571;DHT22;8903;52.220;20.978;2023-05-20T00:58:12;13.50;99.90
17571;DHT22;8903;52.220;20.978;2023-05-20T01:00:39;13.50;99.90
17571;DHT22;8903;52.220;20.978;2023-05-20T01:03:06;13.50;99.90
17571;DHT22;8903;52.220;20.978;2023-05-20T01:05:34;13.50;99.90
17571;DHT22;8903;52.220;20.978;2023-05-20T01:08:01;13.50;99.90
17571;DHT22;8903;52.220;20.978;2023-05-20T01:10:29;13.50;99.90
17571;DHT22;8903;52.220;20.978;2023-05-20T01:12:59;13.50;99.90
17571;DHT22;8903;52.220;20.978;2023-05-20T01:15:54;13.50;99.90
17571;DHT22;8903;52.220;20.978;2023-05-20T01:18:22;13.40;99.90
17571;DHT22;8903;52.220;20.978;2023-05-20T01:20:53;13.40;99.90
17571;DHT22;8903;52.220;20.978;2023-05-20T01:23:22;13.40;99.90
17571;DHT22;8903;52.220;20.978;2023-05-20T01:25:49;13.40;99.90
17571;DHT22;8903;52.220;20.978;2023-05-20T01:28:16;13.40;99.90
17571;DHT22;8903;52.220;20.978;2023-05-20T01:30:47;13.30;99.90
17571;DHT22;8903;52.220;20.978;2023-05-20T01:33:19;13.40;99.90
17571;DHT22;8903;52.220;20.978;2023-05-20T01:35:48;13.40;99.90
17571;DHT22;8903;52.220;20.978;2023-05-20T01:38:18;13.30;99.90
17571;DHT22;8903;52.220;20.978;2023-05-20T01:40:46;13.30;99.90
17571;DHT22;8903;52.220;20.978;2023-05-20T01:43:15;13.30;99.90
17571;DHT22;8903;52.220;20.978;2023-05-20T01:45:43;13.30;99.90
17571;DHT22;8903;52.220;20.978;2023-05-20T01:48:12;13.30;99.90
17571;DHT22;8903;52.220;20.978;2023-05-20T01:50:40;13.30;99.90
17571;DHT22;8903;52.220;20.978;2023-05-20T01:53:09;13.30;99.90
17571;DHT22;8903;52.220;20.978;2023-05-20T01:55:37;13.30;99.90
17571;DHT22;8903;52.220;20.978;2023-05-20T01:58:06;13.30;99.90
17571;DHT22;8903;52.220;20.978;2023-05-20T02:00:33;13.30;99.90
17571;DHT22;8903;52.220;20.978;2023-05-20T02:03:00;13.20;99.90
17571;DHT22;8903;52.220;20.978;2023-05-20T02:05:28;13.30;99.90
17571;DHT22;8903;52.220;20.978;2023-05-20T02:07:55;13.20;99.90
17571;DHT22;8903;52.220;20.978;2023-05-20T02:10:22;13.30;99.90
17571;DHT22;8903;52.220;20.978;2023-05-20T02:12:49;13.30;99.90
17571;DHT22;8903;52.220;20.978;2023-05-20T02:15:17;13.30;99.90
17571;DHT22;8903;52.220;20.978;2023-05-20T02:17:45;13.20;99.90
17571;DHT22;8903;52.220;20.978;2023-05-20T02:20:13;13.20;99.90
17571;DHT22;8903;52.220;20.978;2023-05-20T02:22:40;13.20;99.90
17571;DHT22;8903;52.220;20.978;2023-05-20T02:25:09;13.20;99.90
17571;DHT22;8903;52.220;20.978;2023-05-20T02:27:36;13.20;99.90
17571;DHT22;8903;52.220;20.978;2023-05-20T02:30:06;13.20;99.90
17571;DHT22;8903;52.220;20.978;2023-05-20T02:32:36;13.20;99.90
17571;DHT22;8903;52.220;20.978;2023-05-20T02:35:04;13.20;99.90
17571;DHT22;8903;52.220;20.978;2023-05-20T02:37:31;13.20;99.90
17571;DHT22;8903;52.220;20.978;2023-05-20T02:39:58;13.20;99.90
17571;DHT22;8903;52.220;20.978;2023-05-20T02:42:25;13.20;99.90
17571;DHT22;8903;52.220;20.978;2023-05-20T02:44:52;13.20;99.90
17571;DHT22;8903;52.220;20.978;2023-05-20T02:47:23;13.20;99.90
17571;DHT22;8903;52.220;20.978;2023-05-20T02:49:52;13.20;99.90
17571;DHT22;8903;52.220;20.978;2023-05-20T02:52:19;13.30;99.90
17571;DHT22;8903;52.220;20.978;2023-05-20T02:54:47;13.30;99.90
17571;DHT22;8903;52.220;20.978;2023-05-20T02:57:14;13.30;99.90
17571;DHT22;8903;52.220;20.978;2023-05-20T02:59:41;13.30;99.90
17571;DHT22;8903;52.220;20.978;2023-05-20T03:02:08;13.30;99.90
17571;DHT22;8903;52.220;20.978;2023-05-20T03:04:35;13.30;99.90
17571;DHT22;8903;52.220;20.978;2023-05-20T03:07:06;13.30;99.90
17571;DHT22;8903;52.220;20.978;2023-05-20T03:09:33;13.30;99.90
17571;DHT22;8903;52.220;20.978;2023-05-20T03:12:00;13.30;99.90
17571;DHT22;8903;52.220;20.978;2023-05-20T03:14:28;13.30;99.90
17571;DHT22;8903;52.220;20.978;2023-05-20T03:16:55;13.30;99.90
17571;DHT22;8903;52.220;20.978;2023-05-20T03:19:24;13.30;99.90
17571;DHT22;8903;52.220;20.978;2023-05-20T03:21:51;13.40;99.90
17571;DHT22;8903;52.220;20.978;2023-05-20T03:24:20;13.30;99.90
17571;DHT22;8903;52.220;20.978;2023-05-20T03:26:48;13.40;99.90
17571;DHT22;8903;52.220;20.978;2023-05-20T03:29:16;13.40;99.90
17571;DHT22;8903;52.220;20.978;2023-05-20T03:31:44;13.50;99.90
17571;DHT22;8903;52.220;20.978;2023-05-20T03:34:11;13.50;99.90
17571;DHT22;8903;52.220;20.978;2023-05-20T03:36:38;13.50;99.90
17571;DHT22;8903;52.220;20.978;2023-05-20T03:39:05;13.60;99.90
17571;DHT22;8903;52.220;20.978;2023-05-20T03:41:33;13.60;99.90
17571;DHT22;8903;52.220;20.978;2023-05-20T03:44:01;13.60;99.90
17571;DHT22;8903;52.220;20.978;2023-05-20T03:46:28;13.60;99.90
17571;DHT22;8903;52.220;20.978;2023-05-20T03:48:57;13.60;99.90
17571;DHT22;8903;52.220;20.978;2023-05-20T03:51:24;13.70;99.90
17571;DHT22;8903;52.220;20.978;2023-05-20T03:53:54;13.70;99.90
17571;DHT22;8903;52.220;20.978;2023-05-20T03:56:21;13.70;99.90
17571;DHT22;8903;52.220;20.978;2023-05-20T03:58:49;13.70;99.90
17571;DHT22;8903;52.220;20.978;2023-05-20T04:01:17;13.70;99.90
17571;DHT22;8903;52.220;20.978;2023-05-20T04:03:44;13.80;99.90
17571;DHT22;8903;52.220;20.978;2023-05-20T04:06:13;13.80;99.90
17571;DHT22;8903;52.220;20.978;2023-05-20T04:08:40;13.80;99.90
17571;DHT22;8903;52.220;20.978;2023-05-20T04:11:07;13.90;99.90
17571;DHT22;8903;52.220;20.978;2023-05-20T04:13:35;14.00;99.90
17571;DHT22;8903;52.220;20.978;2023-05-20T04:16:04;14.00;99.90
17571;DHT22;8903;52.220;20.978;2023-05-20T04:18:31;14.00;99.90
17571;DHT22;8903;52.220;20.978;2023-05-20T04:20:58;14.00;99.90
17571;DHT22;8903;52.220;20.978;2023-05-20T04:23:26;14.10;99.90
17571;DHT22;8903;52.220;20.978;2023-05-20T04:25:53;14.10;99.90
17571;DHT22;8903;52.220;20.978;2023-05-20T04:28:22;14.20;99.90
17571;DHT22;8903;52.220;20.978;2023-05-20T04:30:57;14.30;99.90
17571;DHT22;8903;52.220;20.978;2023-05-20T04:33:26;14.30;99.90
17571;DHT22;8903;52.220;20.978;2023-05-20T04:35:53;14.20;99.90
17571;DHT22;8903;52.220;20.978;2023-05-20T04:38:23;14.30;99.90
17571;DHT22;8903;52.220;20.978;2023-05-20T04:40:55;14.30;99.90
17571;DHT22;8903;52.220;20.978;2023-05-20T04:43:23;14.40;99.90
17571;DHT22;8903;52.220;20.978;2023-05-20T04:45:50;14.40;99.90
17571;DHT22;8903;52.220;20.978;2023-05-20T04:48:18;14.50;99.90
17571;DHT22;8903;52.220;20.978;2023-05-20T04:50:48;14.60;99.90
17571;DHT22;8903;52.220;20.978;2023-05-20T04:53:15;14.70;99.90
17571;DHT22;8903;52.220;20.978;2023-05-20T04:55:42;14.80;99.90
17571;DHT22;8903;52.220;20.978;2023-05-20T04:58:09;14.80;99.90
17571;DHT22;8903;52.220;20.978;2023-05-20T05:00:40;14.90;99.90
17571;DHT22;8903;52.220;20.978;2023-05-20T05:03:08;14.90;99.90
17571;DHT22;8903;52.220;20.978;2023-05-20T05:05:35;15.00;99.90
17571;DHT22;8903;52.220;20.978;2023-05-20T05:08:04;15.00;99.90
17571;DHT22;8903;52.220;20.978;2023-05-20T05:10:34;15.10;99.90
17571;DHT22;8903;52.220;20.978;2023-05-20T05:13:01;15.20;99.90
17571;DHT22;8903;52.220;20.978;2023-05-20T05:15:29;15.30;99.90
17571;DHT22;8903;52.220;20.978;2023-05-20T05:17:56;15.40;99.90
17571;DHT22;8903;52.220;20.978;2023-05-20T05:20:23;15.40;99.90
17571;DHT22;8903;52.220;20.978;2023-05-20T05:22:50;15.50;99.90
17571;DHT22;8903;52.220;20.978;2023-05-20T05:25:19;15.70;99.90
17571;DHT22;8903;52.220;20.978;2023-05-20T05:27:46;15.70;99.90
17571;DHT22;8903;52.220;20.978;2023-05-20T05:30:14;15.70;99.90
17571;DHT22;8903;52.220;20.978;2023-05-20T05:32:41;15.80;99.90
17571;DHT22;8903;52.220;20.978;2023-05-20T05:35:08;16.00;99.90
17571;DHT22;8903;52.220;20.978;2023-05-20T05:37:35;16.10;99.90
17571;DHT22;8903;52.220;20.978;2023-05-20T05:40:04;16.20;99.90
17571;DHT22;8903;52.220;20.978;2023-05-20T05:42:34;16.20;99.90
17571;DHT22;8903;52.220;20.978;2023-05-20T05:45:01;16.30;99.90
17571;DHT22;8903;52.220;20.978;2023-05-20T05:47:28;16.30;99.90
17571;DHT22;8903;52.220;20.978;2023-05-20T05:49:57;16.30;99.90
17571;DHT22;8903;52.220;20.978;2023-05-20T05:52:25;16.40;99.90
17571;DHT22;8903;52.220;20.978;2023-05-20T05:54:53;16.50;99.90
17571;DHT22;8903;52.220;20.978;2023-05-20T05:57:20;16.60;99.90
17571;DHT22;8903;52.220;20.978;2023-05-20T05:59:48;16.70;99.90
17571;DHT22;8903;52.220;20.978;2023-05-20T06:02:15;16.70;99.90
17571;DHT22;8903;52.220;20.978;2023-05-20T06:04:42;16.80;99.90
17571;DHT22;8903;52.220;20.978;2023-05-20T06:07:10;16.90;99.90
17571;DHT22;8903;52.220;20.978;2023-05-20T06:09:37;17.00;99.90
17571;DHT22;8903;52.220;20.978;2023-05-20T06:12:05;17.00;99.90
17571;DHT22;8903;52.220;20.978;2023-05-20T06:14:32;17.00;99.90
17571;DHT22;8903;52.220;20.978;2023-05-20T06:17:00;17.10;99.90
17571;DHT22;8903;52.220;20.978;2023-05-20T06:19:27;17.00;99.90
17571;DHT22;8903;52.220;20.978;2023-05-20T06:21:55;17.00;99.90
17571;DHT22;8903;52.220;20.978;2023-05-20T06:24:23;17.20;99.90
17571;DHT22;8903;52.220;20.978;2023-05-20T06:26:50;17.20;99.90
17571;DHT22;8903;52.220;20.978;2023-05-20T06:29:17;17.30;99.90
17571;DHT22;8903;52.220;20.978;2023-05-20T06:31:44;17.40;99.90
17571;DHT22;8903;52.220;20.978;2023-05-20T06:34:13;17.60;99.90
17571;DHT22;8903;52.220;20.978;2023-05-20T06:36:40;17.70;99.90
17571;DHT22;8903;52.220;20.978;2023-05-20T06:39:08;17.70;99.90
17571;DHT22;8903;52.220;20.978;2023-05-20T06:41:38;17.70;99.90
17571;DHT22;8903;52.220;20.978;2023-05-20T06:44:08;17.90;99.90
17571;DHT22;8903;52.220;20.978;2023-05-20T06:46:54;18.00;99.90
17571;DHT22;8903;52.220;20.978;2023-05-20T06:49:22;18.20;99.90
17571;DHT22;8903;52.220;20.978;2023-05-20T06:51:50;18.30;99.90
17571;DHT22;8903;52.220;20.978;2023-05-20T06:54:17;18.50;99.90
17571;DHT22;8903;52.220;20.978;2023-05-20T06:56:45;18.60;99.90
17571;DHT22;8903;52.220;20.978;2023-05-20T06:59:13;18.70;99.90
17571;DHT22;8903;52.220;20.978;2023-05-20T07:01:41;18.70;99.90
17571;DHT22;8903;52.220;20.978;2023-05-20T07:04:08;18.70;99.90
17571;DHT22;8903;52.220;20.978;2023-05-20T07:06:38;18.70;99.90
17571;DHT22;8903;52.220;20.978;2023-05-20T07:09:05;18.70;99.90
17571;DHT22;8903;52.220;20.978;2023-05-20T07:11:32;18.80;99.90
17571;DHT22;8903;52.220;20.978;2023-05-20T07:13:59;18.90;99.90
17571;DHT22;8903;52.220;20.978;2023-05-20T07:16:28;18.90;99.90
17571;DHT22;8903;52.220;20.978;2023-05-20T07:18:57;19.00;99.90
17571;DHT22;8903;52.220;20.978;2023-05-20T07:21:24;19.00;99.90
17571;DHT22;8903;52.220;20.978;2023-05-20T07:24:07;19.10;99.90
17571;DHT22;8903;52.220;20.978;2023-05-20T07:26:34;19.10;99.90
17571;DHT22;8903;52.220;20.978;2023-05-20T07:29:01;19.10;99.90
17571;DHT22;8903;52.220;20.978;2023-05-20T07:31:29;19.10;99.90
17571;DHT22;8903;52.220;20.978;2023-05-20T07:33:56;19.10;99.90
17571;DHT22;8903;52.220;20.978;2023-05-20T07:36:25;19.10;99.90
17571;DHT22;8903;52.220;20.978;2023-05-20T07:38:52;19.20;99.90
17571;DHT22;8903;52.220;20.978;2023-05-20T07:41:21;19.30;99.90
17571;DHT22;8903;52.220;20.978;2023-05-20T07:43:49;19.30;99.90
17571;DHT22;8903;52.220;20.978;2023-05-20T07:46:17;19.40;99.90
17571;DHT22;8903;52.220;20.978;2023-05-20T07:48:44;19.50;99.90
17571;DHT22;8903;52.220;20.978;2023-05-20T07:51:11;19.50;99.90
17571;DHT22;8903;52.220;20.978;2023-05-20T07:53:38;19.60;99.90
17571;DHT22;8903;52.220;20.978;2023-05-20T07:56:06;19.80;99.90
17571;DHT22;8903;52.220;20.978;2023-05-20T07:58:34;19.80;99.90
17571;DHT22;8903;52.220;20.978;2023-05-20T08:01:01;19.90;99.90
17571;DHT22;8903;52.220;20.978;2023-05-20T08:03:28;19.90;99.90
17571;DHT22;8903;52.220;20.978;2023-05-20T08:06:09;20.00;99.90
17571;DHT22;8903;52.220;20.978;2023-05-20T08:08:36;20.10;99.90
17571;DHT22;8903;52.220;20.978;2023-05-20T08:11:11;20.20;99.90
17571;DHT22;8903;52.220;20.978;2023-05-20T08:13:40;20.20;99.90
17571;DHT22;8903;52.220;20.978;2023-05-20T08:16:07;20.30;99.90
17571;DHT22;8903;52.220;20.978;2023-05-20T08:18:35;20.30;99.90
17571;DHT22;8903;52.220;20.978;2023-05-20T08:21:03;20.30;99.90
17571;DHT22;8903;52.220;20.978;2023-05-20T08:23:32;20.40;99.90
17571;DHT22;8903;52.220;20.978;2023-05-20T08:25:59;20.50;99.90
17571;DHT22;8903;52.220;20.978;2023-05-20T08:28:29;20.60;99.90
17571;DHT22;8903;52.220;20.978;2023-05-20T08:31:00;20.70;99.90
17571;DHT22;8903;52.220;20.978;2023-05-20T08:33:29;20.80;99.90
17571;DHT22;8903;52.220;20.978;2023-05-20T08:35:56;20.90;99.90
17571;DHT22;8903;52.220;20.978;2023-05-20T08:38:23;21.00;99.90
17571;DHT22;8903;52.220;20.978;2023-05-20T08:40:51;21.10;99.90
17571;DHT22;8903;52.220;20.978;2023-05-20T08:43:19;21.10;99.90
17571;DHT22;8903;52.220;20.978;2023-05-20T08:45:46;21.20;99.90
17571;DHT22;8903;52.220;20.978;2023-05-20T08:48:17;21.40;99.90
17571;DHT22;8903;52.220;20.978;2023-05-20T08:50:46;21.50;99.90
17571;DHT22;8903;52.220;20.978;2023-05-20T08:53:15;21.60;99.90
17571;DHT22;8903;52.220;20.978;2023-05-20T08:55:45;21.80;99.90
17571;DHT22;8903;52.220;20.978;2023-05-20T08:58:13;21.80;99.90
17571;DHT22;8903;52.220;20.978;2023-05-20T09:00:40;21.90;99.90
17571;DHT22;8903;52.220;20.978;2023-05-20T09:03:07;22.10;99.90
17571;DHT22;8903;52.220;20.978;2023-05-20T09:05:36;22.10;99.90
17571;DHT22;8903;52.220;20.978;2023-05-20T09:08:06;22.10;99.90
17571;DHT22;8903;52.220;20.978;2023-05-20T09:10:33;22.20;99.90
17571;DHT22;8903;52.220;20.978;2023-05-20T09:13:01;22.20;99.90
17571;DHT22;8903;52.220;20.978;2023-05-20T09:15:28;22.10;99.90
17571;DHT22;8903;52.220;20.978;2023-05-20T09:17:58;22.20;99.90
17571;DHT22;8903;52.220;20.978;2023-05-20T09:20:27;22.20;99.90
17571;DHT22;8903;52.220;20.978;2023-05-20T09:22:59;22.20;99.90
17571;DHT22;8903;52.220;20.978;2023-05-20T09:25:27;22.40;99.90
17571;DHT22;8903;52.220;20.978;2023-05-20T09:27:55;22.60;99.90
17571;DHT22;8903;52.220;20.978;2023-05-20T09:30:22;22.80;99.90
17571;DHT22;8903;52.220;20.978;2023-05-20T09:32:53;23.00;99.90
17571;DHT22;8903;52.220;20.978;2023-05-20T09:35:20;23.10;99.90
17571;DHT22;8903;52.220;20.978;2023-05-20T09:37:51;22.90;99.90
17571;DHT22;8903;52.220;20.978;2023-05-20T09:40:23;23.10;99.90
17571;DHT22;8903;52.220;20.978;2023-05-20T09:42:53;23.20;99.90
17571;DHT22;8903;52.220;20.978;2023-05-20T09:45:21;23.30;99.90
17571;DHT22;8903;52.220;20.978;2023-05-20T09:47:50;23.50;99.90
17571;DHT22;8903;52.220;20.978;2023-05-20T09:50:18;23.60;99.90
17571;DHT22;8903;52.220;20.978;2023-05-20T09:52:47;23.70;99.90
17571;DHT22;8903;52.220;20.978;2023-05-20T09:55:15;23.80;99.90
17571;DHT22;8903;52.220;20.978;2023-05-20T09:57:45;23.80;99.90
17571;DHT22;8903;52.220;20.978;2023-05-20T10:00:13;24.00;99.90
17571;DHT22;8903;52.220;20.978;2023-05-20T10:02:43;24.20;99.90
17571;DHT22;8903;52.220;20.978;2023-05-20T10:05:16;24.30;99.90
17571;DHT22;8903;52.220;20.978;2023-05-20T10:10:45;24.10;99.90
17571;DHT22;8903;52.220;20.978;2023-05-20T10:13:37;24.10;99.90
17571;DHT22;8903;52.220;20.978;2023-05-20T10:16:14;24.20;99.90
17571;DHT22;8903;52.220;20.978;2023-05-20T10:18:53;24.30;99.90
17571;DHT22;8903;52.220;20.978;2023-05-20T10:21:22;24.40;99.90
17571;DHT22;8903;52.220;20.978;2023-05-20T10:23:50;24.40;99.90
17571;DHT22;8903;52.220;20.978;2023-05-20T10:26:18;24.50;99.90
17571;DHT22;8903;52.220;20.978;2023-05-20T10:28:48;24.50;99.90
17571;DHT22;8903;52.220;20.978;2023-05-20T10:31:16;24.50;99.90
17571;DHT22;8903;52.220;20.978;2023-05-20T10:33:45;24.70;99.90
17571;DHT22;8903;52.220;20.978;2023-05-20T10:36:22;24.80;99.60
17571;DHT22;8903;52.220;20.978;2023-05-20T10:38:53;24.60;99.80
17571;DHT22;8903;52.220;20.978;2023-05-20T10:41:22;24.60;99.90
17571;DHT22;8903;52.220;20.978;2023-05-20T10:44:00;24.70;99.80
17571;DHT22;8903;52.220;20.978;2023-05-20T10:46:28;24.50;99.60
17571;DHT22;8903;52.220;20.978;2023-05-20T10:48:55;24.60;99.80
17571;DHT22;8903;52.220;20.978;2023-05-20T10:51:22;24.60;99.80
17571;DHT22;8903;52.220;20.978;2023-05-20T10:53:52;24.70;99.90
17571;DHT22;8903;52.220;20.978;2023-05-20T10:56:20;24.60;99.50
17571;DHT22;8903;52.220;20.978;2023-05-20T10:58:48;24.60;99.40
17571;DHT22;8903;52.220;20.978;2023-05-20T11:01:18;24.50;99.00
17571;DHT22;8903;52.220;20.978;2023-05-20T11:03:45;24.40;99.30
17571;DHT22;8903;52.220;20.978;2023-05-20T11:06:14;24.30;99.60
17571;DHT22;8903;52.220;20.978;2023-05-20T11:08:41;24.40;99.30
17571;DHT22;8903;52.220;20.978;2023-05-20T11:11:09;24.50;99.50
17571;DHT22;8903;52.220;20.978;2023-05-20T11:13:37;24.60;99.70
17571;DHT22;8903;52.220;20.978;2023-05-20T11:16:05;24.80;99.50
17571;DHT22;8903;52.220;20.978;2023-05-20T11:18:33;25.00;99.20
17571;DHT22;8903;52.220;20.978;2023-05-20T11:21:01;25.20;99.40
17571;DHT22;8903;52.220;20.978;2023-05-20T11:23:28;25.90;97.50
17571;DHT22;8903;52.220;20.978;2023-05-20T11:25:56;27.40;96.10
17571;DHT22;8903;52.220;20.978;2023-05-20T11:28:23;27.60;95.30
17571;DHT22;8903;52.220;20.978;2023-05-20T11:30:51;28.10;95.30
17571;DHT22;8903;52.220;20.978;2023-05-20T11:33:19;28.30;94.50
17571;DHT22;8903;52.220;20.978;2023-05-20T11:35:50;27.50;94.60
17571;DHT22;8903;52.220;20.978;2023-05-20T11:38:18;27.10;95.50
17571;DHT22;8903;52.220;20.978;2023-05-20T11:40:49;27.10;96.00
17571;DHT22;8903;52.220;20.978;2023-05-20T11:43:16;26.90;95.70
17571;DHT22;8903;52.220;20.978;2023-05-20T11:45:45;26.60;96.20
17571;DHT22;8903;52.220;20.978;2023-05-20T11:48:12;26.40;96.40
17571;DHT22;8903;52.220;20.978;2023-05-20T11:50:41;26.50;96.30
17571;DHT22;8903;52.220;20.978;2023-05-20T11:53:14;26.30;96.90
17571;DHT22;8903;52.220;20.978;2023-05-20T11:55:46;26.60;96.20
17571;DHT22;8903;52.220;20.978;2023-05-20T11:58:18;26.80;96.30
17571;DHT22;8903;52.220;20.978;2023-05-20T12:00:45;27.10;96.30
17571;DHT22;8903;52.220;20.978;2023-05-20T12:03:13;27.70;95.70
17571;DHT22;8903;52.220;20.978;2023-05-20T12:05:40;27.60;94.80
17571;DHT22;8903;52.220;20.978;2023-05-20T12:08:07;27.10;95.30
17571;DHT22;8903;52.220;20.978;2023-05-20T12:10:35;26.80;95.50
17571;DHT22;8903;52.220;20.978;2023-05-20T12:13:03;26.90;95.90
17571;DHT22;8903;52.220;20.978;2023-05-20T12:15:33;26.80;96.00
17571;DHT22;8903;52.220;20.978;2023-05-20T12:18:00;27.00;95.70
17571;DHT22;8903;52.220;20.978;2023-05-20T12:20:28;27.10;95.60
17571;DHT22;8903;52.220;20.978;2023-05-20T12:22:55;27.10;95.50
17571;DHT22;8903;52.220;20.978;2023-05-20T12:25:23;26.90;95.60
17571;DHT22;8903;52.220;20.978;2023-05-20T12:27:51;26.50;96.10
17571;DHT22;8903;52.220;20.978;2023-05-20T12:30:19;26.20;95.70
17571;DHT22;8903;52.220;20.978;2023-05-20T12:32:48;26.30;95.60
17571;DHT22;8903;52.220;20.978;2023-05-20T12:35:15;26.50;95.80
17571;DHT22;8903;52.220;20.978;2023-05-20T12:37:43;26.80;96.00
17571;DHT22;8903;52.220;20.978;2023-05-20T12:40:11;27.30;95.30
17571;DHT22;8903;52.220;20.978;2023-05-20T12:42:39;27.70;94.90
17571;DHT22;8903;52.220;20.978;2023-05-20T12:45:08;27.90;94.50
17571;DHT22;8903;52.220;20.978;2023-05-20T12:47:35;28.00;94.20
17571;DHT22;8903;52.220;20.978;2023-05-20T12:50:03;27.90;94.50
17571;DHT22;8903;52.220;20.978;2023-05-20T12:52:30;27.80;94.80
17571;DHT22;8903;52.220;20.978;2023-05-20T12:54:57;27.80;94.30
17571;DHT22;8903;52.220;20.978;2023-05-20T12:57:24;27.60;94.50
17571;DHT22;8903;52.220;20.978;2023-05-20T12:59:51;27.30;94.90
17571;DHT22;8903;52.220;20.978;2023-05-20T13:02:19;27.30;95.10
17571;DHT22;8903;52.220;20.978;2023-05-20T13:04:46;27.30;95.20
17571;DHT22;8903;52.220;20.978;2023-05-20T13:07:13;27.50;94.60
17571;DHT22;8903;52.220;20.978;2023-05-20T13:09:40;27.80;93.80
17571;DHT22;8903;52.220;20.978;2023-05-20T13:12:08;28.00;93.40
17571;DHT22;8903;52.220;20.978;2023-05-20T13:14:35;28.10;93.50
17571;DHT22;8903;52.220;20.978;2023-05-20T13:17:02;28.30;93.00
17571;DHT22;8903;52.220;20.978;2023-05-20T13:19:30;28.50;93.20
17571;DHT22;8903;52.220;20.978;2023-05-20T13:21:57;28.70;93.80
17571;DHT22;8903;52.220;20.978;2023-05-20T13:24:24;28.90;93.80
17571;DHT22;8903;52.220;20.978;2023-05-20T13:26:51;28.40;93.90
17571;DHT22;8903;52.220;20.978;2023-05-20T13:29:18;27.90;94.20
17571;DHT22;8903;52.220;20.978;2023-05-20T13:31:46;27.40;94.70
17571;DHT22;8903;52.220;20.978;2023-05-20T13:34:13;27.10;95.00
17571;DHT22;8903;52.220;20.978;2023-05-20T13:36:41;27.20;95.30
17571;DHT22;8903;52.220;20.978;2023-05-20T13:39:09;27.10;95.00
17571;DHT22;8903;52.220;20.978;2023-05-20T13:41:36;27.10;95.30
17571;DHT22;8903;52.220;20.978;2023-05-20T13:44:04;26.90;95.70
17571;DHT22;8903;52.220;20.978;2023-05-20T13:46:31;26.70;95.80
17571;DHT22;8903;52.220;20.978;2023-05-20T13:48:58;26.60;96.00
17571;DHT22;8903;52.220;20.978;2023-05-20T13:51:25;26.70;96.20
17571;DHT22;8903;52.220;20.978;2023-05-20T13:53:53;26.50;96.00
17571;DHT22;8903;52.220;20.978;2023-05-20T13:56:20;26.50;96.00
17571;DHT22;8903;52.220;20.978;2023-05-20T13:58:47;26.60;96.10
17571;DHT22;8903;52.220;20.978;2023-05-20T14:01:14;26.80;96.10
17571;DHT22;8903;52.220;20.978;2023-05-20T14:03:41;27.10;95.40
17571;DHT22;8903;52.220;20.978;2023-05-20T14:06:08;27.30;95.40
17571;DHT22;8903;52.220;20.978;2023-05-20T14:08:35;27.50;95.00
17571;DHT22;8903;52.220;20.978;2023-05-20T14:11:04;27.80;94.90
17571;DHT22;8903;52.220;20.978;2023-05-20T14:13:31;27.90;94.10
17571;DHT22;8903;52.220;20.978;2023-05-20T14:15:58;28.00;94.50
17571;DHT22;8903;52.220;20.978;2023-05-20T14:18:25;28.20;93.90
17571;DHT22;8903;52.220;20.978;2023-05-20T14:20:52;28.40;94.00
17571;DHT22;8903;52.220;20.978;2023-05-20T14:23:20;28.60;93.90
17571;DHT22;8903;52.220;20.978;2023-05-20T14:25:47;28.80;93.40
17571;DHT22;8903;52.220;20.978;2023-05-20T14:28:16;28.70;93.50
17571;DHT22;8903;52.220;20.978;2023-05-20T14:30:43;28.60;93.50
17571;DHT22;8903;52.220;20.978;2023-05-20T14:33:10;28.80;93.50
17571;DHT22;8903;52.220;20.978;2023-05-20T14:35:37;28.90;93.30
17571;DHT22;8903;52.220;20.978;2023-05-20T14:38:04;28.80;93.00
17571;DHT22;8903;52.220;20.978;2023-05-20T14:40:31;28.60;93.50
17571;DHT22;8903;52.220;20.978;2023-05-20T14:42:58;28.10;93.60
17571;DHT22;8903;52.220;20.978;2023-05-20T14:45:26;27.80;94.00
17571;DHT22;8903;52.220;20.978;2023-05-20T14:47:53;27.80;93.80
17571;DHT22;8903;52.220;20.978;2023-05-20T14:50:21;27.70;93.70
17571;DHT22;8903;52.220;20.978;2023-05-20T14:52:48;27.60;94.00
17571;DHT22;8903;52.220;20.978;2023-05-20T14:55:18;27.50;94.10
17571;DHT22;8903;52.220;20.978;2023-05-20T14:57:45;27.40;94.10
17571;DHT22;8903;52.220;20.978;2023-05-20T15:00:12;27.30;94.30
17571;DHT22;8903;52.220;20.978;2023-05-20T15:02:41;27.30;94.40
17571;DHT22;8903;52.220;20.978;2023-05-20T15:05:08;27.30;94.30
17571;DHT22;8903;52.220;20.978;2023-05-20T15:07:36;27.30;94.50
17571;DHT22;8903;52.220;20.978;2023-05-20T15:10:04;27.30;94.30
17571;DHT22;8903;52.220;20.978;2023-05-20T15:12:31;27.40;94.10
17571;DHT22;8903;52.220;20.978;2023-05-20T15:14:58;27.70;93.80
17571;DHT22;8903;52.220;20.978;2023-05-20T15:17:25;27.50;93.80
17571;DHT22;8903;52.220;20.978;2023-05-20T15:19:53;27.20;94.20
17571;DHT22;8903;52.220;20.978;2023-05-20T15:22:20;27.10;94.40
17571;DHT22;8903;52.220;20.978;2023-05-20T15:24:47;27.00;94.30
17571;DHT22;8903;52.220;20.978;2023-05-20T15:27:14;26.90;94.40
17571;DHT22;8903;52.220;20.978;2023-05-20T15:29:41;26.60;94.30
17571;DHT22;8903;52.220;20.978;2023-05-20T15:32:08;26.60;94.50
17571;DHT22;8903;52.220;20.978;2023-05-20T15:34:35;26.30;94.80
17571;DHT22;8903;52.220;20.978;2023-05-20T15:37:04;25.90;95.20
17571;DHT22;8903;52.220;20.978;2023-05-20T15:39:31;25.80;95.40